Time;durP1;ratioP1;P1;durP2;ratioP2;P2;SDS_P1;SDS_P2;PMS_P1;PMS_P2;Temp;Humidity;BMP_temperature;BMP_pressure;BME280_temperature;BME280_humidity;BME280_pressure;Samples;Min_cycle;Max_cycle;Signal;HPM_P1;HPM_P2
2021/07/11 00:00:29;;;;;;;;;;;18.00;91.10;;;;;;5093805;28;19904;-36
2021/07/11 00:02:55;;;;;;;;;;;18.10;90.70;;;;;;5093505;28;19911;-36
2021/07/11 00:05:21;;;;;;;;;;;18.00;91.40;;;;;;5093473;28;19904;-41
2021/07/11 00:07:47;;;;;;;;;;;17.80;91.50;;;;;;5079085;28;20428;-38
2021/07/11 00:10:13;;;;;;;;;;;17.60;92.00;;;;;;5097177;28;19908;-36
2021/07/11 00:12:39;;;;;;;;;;;17.50;92.40;;;;;;5097246;28;19958;-36
2021/07/11 00:15:06;;;;;;;;;;;17.50;92.90;;;;;;5078958;28;19908;-38
2021/07/11 00:17:31;;;;;;;;;;;17.60;92.50;;;;;;5097349;28;20294;-37
2021/07/11 00:19:57;;;;;;;;;;;17.70;91.80;;;;;;5097172;28;19939;-38
2021/07/11 00:22:22;;;;;;;;;;;17.80;91.90;;;;;;5097442;28;20340;-37
2021/07/11 00:24:50;;;;;;;;;;;17.60;92.00;;;;;;5079211;28;19998;-37
2021/07/11 00:27:16;;;;;;;;;;;17.50;92.40;;;;;;5097261;28;20355;-37
2021/07/11 00:29:41;;;;;;;;;;;17.60;92.50;;;;;;5097156;28;19908;-37
2021/07/11 00:32:07;;;;;;;;;;;17.70;92.20;;;;;;5097266;28;19904;-37
2021/07/11 00:34:32;;;;;;;;;;;17.80;91.60;;;;;;5096782;28;19919;-37
2021/07/11 00:36:58;;;;;;;;;;;17.80;91.90;;;;;;5096827;28;20469;-36
2021/07/11 00:39:23;;;;;;;;;;;17.80;91.70;;;;;;5078943;28;19904;-37
2021/07/11 00:41:49;;;;;;;;;;;17.80;91.90;;;;;;5096727;28;20359;-37
2021/07/11 00:44:15;;;;;;;;;;;17.70;91.90;;;;;;5096767;28;19911;-38
2021/07/11 00:46:42;;;;;;;;;;;17.80;92.00;;;;;;5096654;28;19911;-49
2021/07/11 00:49:08;;;;;;;;;;;17.80;91.50;;;;;;5096925;28;20275;-37
2021/07/11 00:51:34;;;;;;;;;;;17.80;91.80;;;;;;5096564;28;19915;-37
2021/07/11 00:53:59;;;;;;;;;;;17.80;91.30;;;;;;5096535;28;19908;-37
2021/07/11 00:56:25;;;;;;;;;;;17.70;92.00;;;;;;5096516;28;19908;-38
2021/07/11 00:58:51;;;;;;;;;;;17.80;91.60;;;;;;5096345;28;19943;-37
2021/07/11 01:01:20;;;;;;;;;;;17.70;91.90;;;;;;5096200;28;19963;-38
2021/07/11 01:03:47;;;;;;;;;;;17.80;91.60;;;;;;5096409;28;19904;-37
2021/07/11 01:06:13;;;;;;;;;;;17.70;91.90;;;;;;5096408;28;19904;-37
2021/07/11 01:08:42;;;;;;;;;;;17.70;91.90;;;;;;5096107;28;19908;-37
2021/07/11 01:11:09;;;;;;;;;;;17.70;92.40;;;;;;5095992;28;19915;-37
2021/07/11 01:13:36;;;;;;;;;;;17.70;92.40;;;;;;5077830;28;20348;-37
2021/07/11 01:16:03;;;;;;;;;;;17.50;92.70;;;;;;5096073;28;19929;-37
2021/07/11 01:18:30;;;;;;;;;;;17.70;92.10;;;;;;5077767;28;19957;-37
2021/07/11 01:20:57;;;;;;;;;;;17.60;91.80;;;;;;5095776;28;20333;-37
2021/07/11 01:23:29;;;;;;;;;;;17.70;92.10;;;;;;5096081;28;19904;-37
2021/07/11 01:25:54;;;;;;;;;;;17.50;91.70;;;;;;5095825;28;19904;-37
2021/07/11 01:28:21;;;;;;;;;;;17.50;91.00;;;;;;5095759;28;20278;-37
2021/07/11 01:30:51;;;;;;;;;;;17.30;91.20;;;;;;5095614;28;19908;-37
2021/07/11 01:33:18;;;;;;;;;;;17.30;91.70;;;;;;5095631;28;19951;-38
2021/07/11 01:35:45;;;;;;;;;;;17.30;91.10;;;;;;5095489;28;19916;-37
2021/07/11 01:38:11;;;;;;;;;;;17.30;91.00;;;;;;5095544;28;19904;-37
2021/07/11 01:40:37;;;;;;;;;;;17.20;91.20;;;;;;5095506;28;19911;-37
2021/07/11 01:43:03;;;;;;;;;;;17.30;91.10;;;;;;5095630;28;20366;-36
2021/07/11 01:45:29;;;;;;;;;;;17.20;91.30;;;;;;5095714;28;19915;-36
2021/07/11 01:47:55;;;;;;;;;;;17.10;91.50;;;;;;5095358;28;19904;-37
2021/07/11 01:50:21;;;;;;;;;;;17.10;91.40;;;;;;5095252;28;19908;-36
2021/07/11 01:52:46;;;;;;;;;;;17.10;91.20;;;;;;5095229;28;19904;-37
2021/07/11 01:55:12;;;;;;;;;;;17.20;90.80;;;;;;5095302;28;20356;-37
2021/07/11 01:57:38;;;;;;;;;;;17.10;91.20;;;;;;5076965;28;19904;-37
2021/07/11 02:00:26;;;;;;;;;;;17.00;91.60;;;;;;5095113;28;19960;-37
2021/07/11 02:02:52;;;;;;;;;;;17.10;91.80;;;;;;5092918;28;19904;-36
2021/07/11 02:05:18;;;;;;;;;;;17.20;91.30;;;;;;5094989;28;19904;-36
2021/07/11 02:07:44;;;;;;;;;;;17.30;90.60;;;;;;5095229;28;20359;-37
2021/07/11 02:10:11;;;;;;;;;;;17.30;90.70;;;;;;5094978;28;19908;-36
2021/07/11 02:12:40;;;;;;;;;;;17.30;91.00;;;;;;5094915;28;19904;-38
2021/07/11 02:15:06;;;;;;;;;;;17.40;90.80;;;;;;5094986;28;19904;-38
2021/07/11 02:17:33;;;;;;;;;;;17.30;90.90;;;;;;5076826;28;19904;-44
2021/07/11 02:20:01;;;;;;;;;;;17.10;91.10;;;;;;5076523;28;19908;-37
2021/07/11 02:22:27;;;;;;;;;;;17.10;92.00;;;;;;5094939;28;19904;-37
2021/07/11 02:24:54;;;;;;;;;;;17.00;91.70;;;;;;5095292;28;19911;-36
2021/07/11 02:27:19;;;;;;;;;;;16.90;92.10;;;;;;5094829;28;19945;-37
2021/07/11 02:29:46;;;;;;;;;;;16.80;92.30;;;;;;5093968;28;19914;-36
2021/07/11 02:32:14;;;;;;;;;;;16.90;92.00;;;;;;5094466;28;19999;-37
2021/07/11 02:34:42;;;;;;;;;;;16.90;92.10;;;;;;5094219;28;19916;-37
2021/07/11 02:37:08;;;;;;;;;;;16.80;92.20;;;;;;5094653;28;19904;-37
2021/07/11 02:39:35;;;;;;;;;;;16.80;92.50;;;;;;5094412;28;19904;-37
2021/07/11 02:42:02;;;;;;;;;;;16.80;92.30;;;;;;5076315;28;19903;-36
2021/07/11 02:44:28;;;;;;;;;;;16.90;91.70;;;;;;5094528;28;19904;-36
2021/07/11 02:47:02;;;;;;;;;;;16.80;91.80;;;;;;5094283;28;19904;-37
2021/07/11 02:49:32;;;;;;;;;;;16.80;91.90;;;;;;5094950;28;20008;-37
2021/07/11 02:51:58;;;;;;;;;;;16.80;92.30;;;;;;5094617;28;20058;-36
2021/07/11 02:54:25;;;;;;;;;;;16.90;91.70;;;;;;5094291;28;19911;-36
2021/07/11 02:56:53;;;;;;;;;;;17.00;91.70;;;;;;5094194;28;19930;-37
2021/07/11 02:59:20;;;;;;;;;;;17.20;91.50;;;;;;5094534;28;19908;-36
2021/07/11 03:01:46;;;;;;;;;;;17.20;90.70;;;;;;5094461;28;19903;-36
2021/07/11 03:04:13;;;;;;;;;;;17.20;90.80;;;;;;5093969;28;19911;-36
2021/07/11 03:06:38;;;;;;;;;;;17.30;90.60;;;;;;5093983;28;19911;-36
2021/07/11 03:09:05;;;;;;;;;;;17.20;90.40;;;;;;5094207;28;19903;-37
2021/07/11 03:11:31;;;;;;;;;;;17.30;90.10;;;;;;5093790;28;19908;-36
2021/07/11 03:13:57;;;;;;;;;;;17.20;90.60;;;;;;5094177;28;20351;-37
2021/07/11 03:16:23;;;;;;;;;;;16.90;91.40;;;;;;5075710;28;19998;-36
2021/07/11 03:18:50;;;;;;;;;;;17.10;91.40;;;;;;5094902;28;19949;-37
2021/07/11 03:21:15;;;;;;;;;;;17.10;91.30;;;;;;5093776;28;19911;-41
2021/07/11 03:23:41;;;;;;;;;;;17.30;90.60;;;;;;5093861;28;19904;-37
2021/07/11 03:26:07;;;;;;;;;;;17.40;90.20;;;;;;5093973;28;19904;-36
2021/07/11 03:28:35;;;;;;;;;;;17.20;90.70;;;;;;5093748;28;19908;-36
2021/07/11 03:31:04;;;;;;;;;;;17.10;91.10;;;;;;5093627;28;19944;-36
2021/07/11 03:33:30;;;;;;;;;;;17.00;91.40;;;;;;5093935;28;19904;-37
2021/07/11 03:35:58;;;;;;;;;;;17.00;91.50;;;;;;5093477;28;19920;-36
2021/07/11 03:38:26;;;;;;;;;;;17.20;91.00;;;;;;5093814;28;20275;-36
2021/07/11 03:40:55;;;;;;;;;;;17.30;90.70;;;;;;5094928;28;19961;-37
2021/07/11 03:43:25;;;;;;;;;;;17.20;91.00;;;;;;5097740;28;20376;-37
2021/07/11 03:45:55;;;;;;;;;;;17.20;90.80;;;;;;5097670;28;20002;-38
2021/07/11 03:48:24;;;;;;;;;;;17.00;91.40;;;;;;5097705;28;19950;-36
2021/07/11 03:50:51;;;;;;;;;;;17.10;91.40;;;;;;5097829;28;20007;-38
2021/07/11 03:53:21;;;;;;;;;;;17.30;90.90;;;;;;5097589;28;19904;-37
2021/07/11 03:55:47;;;;;;;;;;;17.30;90.80;;;;;;5097405;28;19965;-37
2021/07/11 03:58:12;;;;;;;;;;;17.20;91.40;;;;;;5097391;28;20286;-35
2021/07/11 04:00:39;;;;;;;;;;;17.00;91.90;;;;;;5097680;28;19911;-36
2021/07/11 04:03:05;;;;;;;;;;;17.00;91.80;;;;;;5097216;28;19905;-36
2021/07/11 04:05:34;;;;;;;;;;;16.90;92.10;;;;;;5097444;28;19904;-36
2021/07/11 04:08:00;;;;;;;;;;;17.00;92.50;;;;;;5096894;28;20393;-36
2021/07/11 04:10:27;;;;;;;;;;;17.10;92.40;;;;;;5097110;28;19916;-37
2021/07/11 04:12:54;;;;;;;;;;;17.20;91.90;;;;;;5097375;28;19904;-36
2021/07/11 04:15:20;;;;;;;;;;;17.00;92.00;;;;;;5096970;28;20374;-36
2021/07/11 04:17:47;;;;;;;;;;;17.00;91.60;;;;;;5097032;28;19904;-36
2021/07/11 04:20:13;;;;;;;;;;;17.10;91.80;;;;;;5078561;28;19955;-37
2021/07/11 04:22:40;;;;;;;;;;;16.90;92.20;;;;;;5078605;28;20346;-38
2021/07/11 04:25:08;;;;;;;;;;;16.90;91.90;;;;;;5096611;28;19904;-37
2021/07/11 04:27:33;;;;;;;;;;;17.00;91.80;;;;;;5078788;28;19904;-38
2021/07/11 04:29:59;;;;;;;;;;;17.00;91.50;;;;;;5096420;28;20348;-38
2021/07/11 04:32:25;;;;;;;;;;;17.00;91.20;;;;;;5096698;28;19904;-38
2021/07/11 04:34:50;;;;;;;;;;;17.00;91.50;;;;;;5096272;28;19960;-37
2021/07/11 04:37:16;;;;;;;;;;;17.00;91.50;;;;;;5096302;28;19943;-38
2021/07/11 04:39:41;;;;;;;;;;;16.90;91.60;;;;;;5096617;28;19904;-39
2021/07/11 04:42:07;;;;;;;;;;;17.00;91.20;;;;;;5096304;28;20304;-38
2021/07/11 04:44:33;;;;;;;;;;;17.10;91.40;;;;;;5096707;28;20422;-36
2021/07/11 04:46:59;;;;;;;;;;;17.00;91.40;;;;;;5078089;28;19911;-36
2021/07/11 04:49:24;;;;;;;;;;;16.90;91.70;;;;;;5096293;28;19910;-37
2021/07/11 04:51:51;;;;;;;;;;;16.80;92.20;;;;;;5095706;28;19908;-38
2021/07/11 04:54:16;;;;;;;;;;;16.80;92.50;;;;;;5096497;28;20274;-36
2021/07/11 04:56:42;;;;;;;;;;;17.00;92.30;;;;;;5096962;28;19912;-36
2021/07/11 04:59:08;;;;;;;;;;;17.10;91.60;;;;;;5096656;28;20065;-36
2021/07/11 05:01:34;;;;;;;;;;;17.10;91.50;;;;;;5096103;28;20331;-36
2021/07/11 05:04:00;;;;;;;;;;;17.20;91.70;;;;;;5077834;28;19904;-36
2021/07/11 05:06:26;;;;;;;;;;;16.80;92.10;;;;;;5096479;28;20382;-36
2021/07/11 05:08:51;;;;;;;;;;;16.80;92.80;;;;;;5096564;28;19904;-38
2021/07/11 05:11:17;;;;;;;;;;;16.80;92.70;;;;;;5095934;28;19908;-36
2021/07/11 05:13:43;;;;;;;;;;;16.90;92.40;;;;;;5096268;28;19904;-37
2021/07/11 05:16:08;;;;;;;;;;;17.00;92.20;;;;;;5096020;28;20006;-36
2021/07/11 05:18:34;;;;;;;;;;;17.20;91.20;;;;;;5077654;28;20316;-37
2021/07/11 05:20:59;;;;;;;;;;;17.30;91.00;;;;;;5077351;28;19998;-37
2021/07/11 05:23:25;;;;;;;;;;;17.10;91.10;;;;;;5077436;28;19910;-37
2021/07/11 05:25:51;;;;;;;;;;;17.10;91.20;;;;;;5095587;28;19904;-37
2021/07/11 05:28:17;;;;;;;;;;;17.40;90.70;;;;;;5095619;28;19904;-37
2021/07/11 05:30:43;;;;;;;;;;;17.40;90.30;;;;;;5095457;28;20348;-37
2021/07/11 05:33:08;;;;;;;;;;;17.30;90.70;;;;;;5095502;28;19915;-37
2021/07/11 05:35:34;;;;;;;;;;;17.50;90.70;;;;;;5095359;28;19920;-37
2021/07/11 05:37:59;;;;;;;;;;;17.70;89.30;;;;;;5095737;28;19904;-37
2021/07/11 05:40:25;;;;;;;;;;;17.50;90.30;;;;;;5094961;28;19994;-37
2021/07/11 05:42:51;;;;;;;;;;;17.40;90.40;;;;;;5095591;28;19908;-37
2021/07/11 05:45:16;;;;;;;;;;;17.50;90.20;;;;;;5095286;28;19904;-37
2021/07/11 05:47:42;;;;;;;;;;;17.50;89.80;;;;;;5095200;28;19904;-37
2021/07/11 05:50:08;;;;;;;;;;;17.50;89.80;;;;;;5095382;28;19953;-37
2021/07/11 05:52:33;;;;;;;;;;;17.50;89.90;;;;;;5095352;28;20407;-37
2021/07/11 05:54:59;;;;;;;;;;;17.50;89.90;;;;;;5095096;28;20010;-37
2021/07/11 05:57:26;;;;;;;;;;;17.30;90.00;;;;;;5094960;28;19904;-37
2021/07/11 05:59:51;;;;;;;;;;;17.50;90.30;;;;;;5094834;28;19961;-36
2021/07/11 06:02:17;;;;;;;;;;;17.30;91.10;;;;;;5094909;28;19908;-39
2021/07/11 06:04:43;;;;;;;;;;;17.40;90.40;;;;;;5094096;28;19904;-37
2021/07/11 06:07:09;;;;;;;;;;;17.70;90.30;;;;;;5095155;28;19987;-37
2021/07/11 06:09:34;;;;;;;;;;;17.30;90.80;;;;;;5095033;28;19934;-36
2021/07/11 06:12:00;;;;;;;;;;;17.60;89.90;;;;;;5094612;28;19904;-36
2021/07/11 06:14:25;;;;;;;;;;;17.80;89.20;;;;;;5094508;28;19904;-37
2021/07/11 06:16:51;;;;;;;;;;;17.80;89.20;;;;;;5094747;28;19927;-38
2021/07/11 06:19:18;;;;;;;;;;;17.90;88.40;;;;;;5095164;28;19904;-37
2021/07/11 06:21:43;;;;;;;;;;;17.80;89.10;;;;;;5094795;28;19911;-37
2021/07/11 06:24:09;;;;;;;;;;;17.50;90.30;;;;;;5094790;28;19908;-36
2021/07/11 06:26:35;;;;;;;;;;;17.40;90.20;;;;;;5094822;28;19911;-36
2021/07/11 06:29:00;;;;;;;;;;;17.50;90.30;;;;;;5094746;28;19904;-36
2021/07/11 06:31:26;;;;;;;;;;;17.60;89.90;;;;;;5076428;28;19908;-37
2021/07/11 06:33:51;;;;;;;;;;;17.50;89.70;;;;;;5094425;28;20355;-37
2021/07/11 06:36:17;;;;;;;;;;;17.50;90.20;;;;;;5076520;28;20433;-38
2021/07/11 06:38:42;;;;;;;;;;;17.50;89.80;;;;;;5094548;28;19904;-37
2021/07/11 06:41:08;;;;;;;;;;;17.70;89.40;;;;;;5094493;28;19950;-37
2021/07/11 06:43:33;;;;;;;;;;;17.80;89.50;;;;;;5094619;28;19911;-37
2021/07/11 06:45:59;;;;;;;;;;;17.70;89.60;;;;;;5094368;28;20260;-37
2021/07/11 06:48:25;;;;;;;;;;;17.70;89.00;;;;;;5094240;28;19904;-37
2021/07/11 06:50:50;;;;;;;;;;;17.40;90.00;;;;;;5094400;28;19908;-37
2021/07/11 06:53:16;;;;;;;;;;;17.70;89.90;;;;;;5094644;28;19904;-37
2021/07/11 06:55:41;;;;;;;;;;;17.70;89.40;;;;;;5076275;28;19911;-37
2021/07/11 06:58:07;;;;;;;;;;;17.80;88.80;;;;;;5094482;28;19904;-48
2021/07/11 07:00:32;;;;;;;;;;;17.80;88.70;;;;;;5094266;28;20003;-37
2021/07/11 07:02:58;;;;;;;;;;;17.80;88.90;;;;;;5094299;28;20006;-37
2021/07/11 07:05:25;;;;;;;;;;;17.50;89.80;;;;;;5094129;28;19904;-37
2021/07/11 07:07:50;;;;;;;;;;;17.70;89.80;;;;;;5094395;28;20284;-37
2021/07/11 07:10:16;;;;;;;;;;;17.70;89.50;;;;;;5094309;28;19908;-37
2021/07/11 07:12:42;;;;;;;;;;;17.70;89.00;;;;;;5076265;28;20275;-37
2021/07/11 07:15:09;;;;;;;;;;;17.70;88.70;;;;;;5075799;28;20386;-36
2021/07/11 07:17:34;;;;;;;;;;;17.60;89.10;;;;;;5093852;28;19911;-37
2021/07/11 07:20:00;;;;;;;;;;;17.40;89.70;;;;;;5093905;28;20298;-36
2021/07/11 07:22:25;;;;;;;;;;;17.60;89.50;;;;;;5094092;28;19904;-36
2021/07/11 07:24:54;;;;;;;;;;;17.70;88.60;;;;;;5075994;28;20352;-37
2021/07/11 07:27:19;;;;;;;;;;;17.70;88.40;;;;;;5093895;28;19995;-37
2021/07/11 07:29:45;;;;;;;;;;;17.70;88.00;;;;;;5093833;28;20361;-37
2021/07/11 07:32:10;;;;;;;;;;;17.60;88.70;;;;;;5094078;28;19990;-37
2021/07/11 07:34:36;;;;;;;;;;;17.80;87.60;;;;;;5093700;28;19920;-37
2021/07/11 07:37:01;;;;;;;;;;;17.60;87.80;;;;;;5093942;28;19908;-36
2021/07/11 07:39:27;;;;;;;;;;;17.70;87.50;;;;;;5094102;28;19905;-40
2021/07/11 07:41:56;;;;;;;;;;;17.80;87.50;;;;;;5093649;28;19947;-36
2021/07/11 07:44:22;;;;;;;;;;;18.00;86.60;;;;;;5094002;28;20003;-37
2021/07/11 07:46:47;;;;;;;;;;;18.20;85.70;;;;;;5075459;28;19950;-37
2021/07/11 07:49:13;;;;;;;;;;;17.90;87.00;;;;;;5093899;28;20404;-36
2021/07/11 07:51:40;;;;;;;;;;;18.00;86.20;;;;;;5093391;28;19985;-37
2021/07/11 07:54:06;;;;;;;;;;;17.80;87.10;;;;;;5093472;28;19911;-38
2021/07/11 07:56:31;;;;;;;;;;;17.90;87.20;;;;;;5075489;28;19904;-37
2021/07/11 07:58:57;;;;;;;;;;;18.00;86.50;;;;;;5093368;28;19910;-37
2021/07/11 08:01:22;;;;;;;;;;;18.20;85.70;;;;;;5093349;28;19904;-36
2021/07/11 08:03:48;;;;;;;;;;;18.20;85.80;;;;;;5093300;28;20068;-37
2021/07/11 08:06:13;;;;;;;;;;;18.20;85.50;;;;;;5075141;28;19953;-36
2021/07/11 08:08:39;;;;;;;;;;;18.50;85.90;;;;;;5093296;28;19908;-37
2021/07/11 08:11:07;;;;;;;;;;;18.80;84.50;;;;;;5075594;28;19916;-37
2021/07/11 08:13:36;;;;;;;;;;;18.60;84.30;;;;;;5075027;28;20359;-36
2021/07/11 08:16:02;;;;;;;;;;;18.30;85.40;;;;;;5093335;28;19985;-37
2021/07/11 08:18:28;;;;;;;;;;;18.70;84.50;;;;;;5074941;28;19907;-47
2021/07/11 08:20:53;;;;;;;;;;;18.80;84.50;;;;;;5075755;28;19904;-36
2021/07/11 08:23:19;;;;;;;;;;;18.70;84.50;;;;;;5094439;28;19936;-44
2021/07/11 08:25:45;;;;;;;;;;;18.60;85.40;;;;;;5093270;28;19905;-37
2021/07/11 08:28:10;;;;;;;;;;;18.60;85.20;;;;;;5097109;28;19904;-37
2021/07/11 08:30:36;;;;;;;;;;;18.80;85.20;;;;;;5097175;28;20473;-36
2021/07/11 08:33:02;;;;;;;;;;;19.10;84.00;;;;;;5078769;28;20344;-37
2021/07/11 08:35:27;;;;;;;;;;;19.40;82.20;;;;;;5096542;28;19919;-38
2021/07/11 08:37:53;;;;;;;;;;;19.20;82.90;;;;;;5096758;28;19975;-37
2021/07/11 08:40:19;;;;;;;;;;;19.60;82.20;;;;;;5078345;28;19907;-37
2021/07/11 08:42:45;;;;;;;;;;;19.50;80.90;;;;;;5096637;28;20289;-37
2021/07/11 08:45:11;;;;;;;;;;;19.80;80.00;;;;;;5096584;28;19911;-37
2021/07/11 08:47:37;;;;;;;;;;;19.30;82.10;;;;;;5096269;28;19942;-37
2021/07/11 08:50:04;;;;;;;;;;;19.50;80.60;;;;;;5096437;28;19908;-37
2021/07/11 08:52:29;;;;;;;;;;;19.50;80.50;;;;;;5096334;28;19908;-36
2021/07/11 08:54:55;;;;;;;;;;;19.60;81.00;;;;;;5096309;28;20325;-36
2021/07/11 08:57:20;;;;;;;;;;;19.70;79.70;;;;;;5096442;28;19904;-36
2021/07/11 08:59:46;;;;;;;;;;;19.60;79.60;;;;;;5078195;28;19927;-37
2021/07/11 09:02:11;;;;;;;;;;;19.80;79.00;;;;;;5096940;28;20251;-38
2021/07/11 09:04:41;;;;;;;;;;;19.30;79.80;;;;;;5096009;28;20305;-37
2021/07/11 09:07:06;;;;;;;;;;;18.90;81.60;;;;;;5096162;28;19988;-37
2021/07/11 09:09:33;;;;;;;;;;;19.30;80.40;;;;;;5096049;28;20359;-37
2021/07/11 09:12:03;;;;;;;;;;;19.50;79.60;;;;;;5096291;28;19908;-37
2021/07/11 09:14:31;;;;;;;;;;;19.20;80.80;;;;;;5096226;28;20367;-38
2021/07/11 09:16:58;;;;;;;;;;;19.10;81.00;;;;;;5096238;28;20335;-36
2021/07/11 09:19:23;;;;;;;;;;;19.30;80.20;;;;;;5095955;28;19904;-38
2021/07/11 09:21:56;;;;;;;;;;;19.10;81.10;;;;;;5096069;28;19908;-37
2021/07/11 09:24:22;;;;;;;;;;;19.70;80.00;;;;;;5096053;28;19904;-36
2021/07/11 09:26:50;;;;;;;;;;;19.70;79.00;;;;;;5095806;28;19904;-38
2021/07/11 09:29:25;;;;;;;;;;;20.00;78.20;;;;;;5095952;28;19952;-37
2021/07/11 09:31:51;;;;;;;;;;;19.80;79.00;;;;;;5096013;28;19915;-38
2021/07/11 09:34:19;;;;;;;;;;;19.90;78.70;;;;;;5077288;28;20368;-36
2021/07/11 09:36:47;;;;;;;;;;;19.90;78.30;;;;;;5095711;28;19911;-36
2021/07/11 09:39:13;;;;;;;;;;;19.80;78.60;;;;;;5076125;28;19911;-38
2021/07/11 09:41:39;;;;;;;;;;;19.40;80.20;;;;;;5095858;28;19908;-37
2021/07/11 09:44:05;;;;;;;;;;;19.50;80.60;;;;;;5095554;28;20253;-38
2021/07/11 09:46:36;;;;;;;;;;;19.70;79.80;;;;;;5097092;28;19911;-38
2021/07/11 09:49:03;;;;;;;;;;;19.80;80.10;;;;;;5095851;28;19911;-36
2021/07/11 09:51:29;;;;;;;;;;;20.30;77.60;;;;;;5096266;28;19941;-36
2021/07/11 09:54:06;;;;;;;;;;;20.70;76.30;;;;;;5095530;28;19954;-37
2021/07/11 09:56:33;;;;;;;;;;;20.80;76.60;;;;;;5096297;28;19904;-37
2021/07/11 09:59:01;;;;;;;;;;;20.40;75.50;;;;;;5077326;28;19908;-37
2021/07/11 10:01:29;;;;;;;;;;;20.80;74.50;;;;;;5095358;28;20375;-39
2021/07/11 10:03:55;;;;;;;;;;;20.70;75.20;;;;;;5095607;28;19947;-37
2021/07/11 10:06:21;;;;;;;;;;;20.80;74.50;;;;;;5095146;28;19911;-37
2021/07/11 10:08:46;;;;;;;;;;;21.00;73.40;;;;;;5095154;28;20011;-37
2021/07/11 10:11:12;;;;;;;;;;;20.80;73.20;;;;;;5095133;28;19908;-37
2021/07/11 10:13:37;;;;;;;;;;;20.80;74.10;;;;;;5095138;28;19904;-37
2021/07/11 10:16:07;;;;;;;;;;;21.80;71.40;;;;;;5094903;28;19904;-37
2021/07/11 10:18:33;;;;;;;;;;;21.80;69.20;;;;;;5094797;28;20351;-38
2021/07/11 10:20:59;;;;;;;;;;;21.70;70.10;;;;;;5076730;28;19908;-37
2021/07/11 10:23:37;;;;;;;;;;;21.80;69.90;;;;;;5094824;28;19908;-37
2021/07/11 10:26:04;;;;;;;;;;;21.70;69.30;;;;;;5094905;28;19904;-37
2021/07/11 10:28:31;;;;;;;;;;;22.00;68.60;;;;;;5094677;28;19911;-37
2021/07/11 10:30:57;;;;;;;;;;;22.60;67.10;;;;;;5094519;28;19908;-37
2021/07/11 10:33:24;;;;;;;;;;;23.30;65.10;;;;;;5094433;28;19911;-36
2021/07/11 10:35:55;;;;;;;;;;;23.30;65.00;;;;;;5094181;28;20276;-36
2021/07/11 10:38:31;;;;;;;;;;;23.10;64.20;;;;;;5094905;28;19947;-36
2021/07/11 10:41:10;;;;;;;;;;;23.30;63.30;;;;;;5094912;28;20017;-37
2021/07/11 10:43:36;;;;;;;;;;;23.60;62.20;;;;;;5095045;28;19911;-37
2021/07/11 10:46:01;;;;;;;;;;;23.30;62.50;;;;;;5094632;28;19904;-37
2021/07/11 10:48:28;;;;;;;;;;;23.30;63.60;;;;;;5094897;28;19995;-37
2021/07/11 10:50:53;;;;;;;;;;;23.60;62.70;;;;;;5093894;28;19915;-37
2021/07/11 10:53:19;;;;;;;;;;;23.50;62.50;;;;;;5094328;28;19908;-38
2021/07/11 10:55:45;;;;;;;;;;;22.80;64.90;;;;;;5094527;28;19904;-37
2021/07/11 10:58:11;;;;;;;;;;;23.10;64.20;;;;;;5094199;28;19904;-42
2021/07/11 11:00:37;;;;;;;;;;;23.40;63.70;;;;;;5094287;28;19904;-38
2021/07/11 11:03:14;;;;;;;;;;;23.00;63.80;;;;;;5075935;28;19998;-38
2021/07/11 11:05:42;;;;;;;;;;;22.80;65.50;;;;;;5094382;28;19998;-38
2021/07/11 11:08:09;;;;;;;;;;;22.30;66.00;;;;;;5094480;28;19911;-37
2021/07/11 11:10:36;;;;;;;;;;;22.20;65.80;;;;;;5094269;28;19908;-37
2021/07/11 11:13:01;;;;;;;;;;;22.40;64.40;;;;;;5094010;28;19904;-36
2021/07/11 11:15:45;;;;;;;;;;;22.40;64.40;;;;;;5094277;28;19904;-37
2021/07/11 11:18:11;;;;;;;;;;;22.40;64.70;;;;;;5093862;28;19904;-38
2021/07/11 11:20:36;;;;;;;;;;;22.40;64.90;;;;;;5093608;28;19904;-36
2021/07/11 11:23:02;;;;;;;;;;;22.80;64.90;;;;;;5093743;28;20352;-39
2021/07/11 11:25:27;;;;;;;;;;;22.30;65.90;;;;;;5093839;28;19911;-36
2021/07/11 11:27:54;;;;;;;;;;;22.30;66.10;;;;;;5076322;28;20290;-37
2021/07/11 11:30:21;;;;;;;;;;;22.30;66.30;;;;;;5093914;28;20014;-37
2021/07/11 11:32:49;;;;;;;;;;;21.40;68.40;;;;;;5093724;28;19911;-37
2021/07/11 11:35:24;;;;;;;;;;;22.10;66.90;;;;;;5093368;28;19998;-36
2021/07/11 11:37:50;;;;;;;;;;;22.60;65.00;;;;;;5093568;28;19947;-38
2021/07/11 11:40:16;;;;;;;;;;;22.50;63.80;;;;;;5093913;28;19911;-38
2021/07/11 11:42:46;;;;;;;;;;;22.30;64.50;;;;;;5093854;28;20285;-37
2021/07/11 11:45:12;;;;;;;;;;;22.80;62.70;;;;;;5093861;28;19904;-37
2021/07/11 11:47:38;;;;;;;;;;;23.20;62.10;;;;;;5093917;28;19911;-38
2021/07/11 11:50:10;;;;;;;;;;;22.80;64.10;;;;;;5093481;28;19908;-37
2021/07/11 11:52:36;;;;;;;;;;;23.20;61.10;;;;;;5093800;28;19923;-38
2021/07/11 11:55:05;;;;;;;;;;;23.40;60.40;;;;;;5093384;28;20319;-38
2021/07/11 11:57:32;;;;;;;;;;;23.60;60.20;;;;;;5093436;28;19904;-38
2021/07/11 11:59:58;;;;;;;;;;;24.20;57.40;;;;;;5093877;28;19904;-37
2021/07/11 12:02:24;;;;;;;;;;;24.40;57.60;;;;;;5095741;28;20270;-38
2021/07/11 12:04:49;;;;;;;;;;;24.50;58.20;;;;;;5097639;28;19904;-37
2021/07/11 12:07:15;;;;;;;;;;;24.80;58.20;;;;;;5097448;28;19927;-38
2021/07/11 12:09:41;;;;;;;;;;;23.80;60.20;;;;;;5097401;28;19904;-37
2021/07/11 12:12:08;;;;;;;;;;;24.30;58.40;;;;;;5097497;28;19931;-38
2021/07/11 12:14:35;;;;;;;;;;;25.00;56.20;;;;;;5097267;28;20252;-37
2021/07/11 12:17:04;;;;;;;;;;;24.60;57.60;;;;;;5097519;28;19904;-39
2021/07/11 12:19:48;;;;;;;;;;;24.90;56.30;;;;;;5097276;28;19908;-37
2021/07/11 12:22:15;;;;;;;;;;;25.10;56.30;;;;;;5097985;28;19927;-44
2021/07/11 12:24:40;;;;;;;;;;;25.30;54.30;;;;;;5097139;28;19927;-37
2021/07/11 12:27:06;;;;;;;;;;;24.40;56.20;;;;;;5096632;28;19904;-36
2021/07/11 12:29:34;;;;;;;;;;;24.00;58.30;;;;;;5096616;28;19938;-41
2021/07/11 12:32:00;;;;;;;;;;;23.70;60.00;;;;;;5097082;28;20341;-38
2021/07/11 12:34:26;;;;;;;;;;;24.30;58.00;;;;;;5096576;28;19912;-38
2021/07/11 12:36:53;;;;;;;;;;;24.40;57.20;;;;;;5096696;28;20317;-37
2021/07/11 12:39:20;;;;;;;;;;;24.40;57.20;;;;;;5096556;28;19908;-38
2021/07/11 12:41:46;;;;;;;;;;;24.30;58.30;;;;;;5096680;28;19904;-37
2021/07/11 12:44:13;;;;;;;;;;;24.30;56.80;;;;;;5078535;28;20343;-36
2021/07/11 12:46:39;;;;;;;;;;;24.70;55.40;;;;;;5078195;28;20016;-37
2021/07/11 12:49:09;;;;;;;;;;;24.40;56.10;;;;;;5096493;28;20444;-37
2021/07/11 12:51:39;;;;;;;;;;;25.30;54.70;;;;;;5078459;28;20314;-39
2021/07/11 12:54:18;;;;;;;;;;;26.90;51.20;;;;;;5096871;28;19908;-38
2021/07/11 12:56:54;;;;;;;;;;;26.50;52.80;;;;;;5096763;28;19904;-38
2021/07/11 12:59:35;;;;;;;;;;;24.30;57.90;;;;;;5096793;28;19930;-38
2021/07/11 13:02:19;;;;;;;;;;;23.50;60.40;;;;;;5096608;28;19911;-38
2021/07/11 13:04:53;;;;;;;;;;;23.30;61.50;;;;;;5078499;28;19908;-40
2021/07/11 13:07:20;;;;;;;;;;;23.60;61.10;;;;;;5078264;28;20376;-37
2021/07/11 13:09:46;;;;;;;;;;;24.30;59.10;;;;;;5096625;28;19904;-38
2021/07/11 13:12:14;;;;;;;;;;;25.00;57.60;;;;;;5077979;28;19904;-38
2021/07/11 13:14:58;;;;;;;;;;;26.00;53.50;;;;;;5096502;28;19912;-38
2021/07/11 13:17:25;;;;;;;;;;;25.90;53.00;;;;;;5096439;28;20045;-37
2021/07/11 13:19:51;;;;;;;;;;;25.50;54.60;;;;;;5078737;28;19904;-38
2021/07/11 13:22:17;;;;;;;;;;;25.20;54.80;;;;;;5096287;28;19949;-38
2021/07/11 13:24:42;;;;;;;;;;;24.70;56.80;;;;;;5096357;28;19951;-38
2021/07/11 13:27:08;;;;;;;;;;;25.20;55.20;;;;;;5097317;28;19904;-43
2021/07/11 13:29:34;;;;;;;;;;;26.30;51.90;;;;;;5096095;28;19904;-38
2021/07/11 13:32:00;;;;;;;;;;;26.90;49.90;;;;;;5095651;28;19911;-38
2021/07/11 13:34:25;;;;;;;;;;;26.80;50.60;;;;;;5095637;28;19998;-39
2021/07/11 13:36:51;;;;;;;;;;;25.70;52.70;;;;;;5096075;28;19904;-39
2021/07/11 13:39:17;;;;;;;;;;;25.70;53.10;;;;;;5096963;28;19910;-39
2021/07/11 13:41:42;;;;;;;;;;;26.30;51.30;;;;;;5095862;28;19958;-39
2021/07/11 13:44:08;;;;;;;;;;;26.40;50.80;;;;;;5095724;28;19904;-38
2021/07/11 13:46:34;;;;;;;;;;;26.80;49.10;;;;;;5095957;28;19987;-39
2021/07/11 13:48:59;;;;;;;;;;;27.90;46.60;;;;;;5095744;28;19904;-38
2021/07/11 13:51:26;;;;;;;;;;;27.60;45.90;;;;;;5095870;28;20124;-40
2021/07/11 13:53:52;;;;;;;;;;;27.00;47.40;;;;;;5096058;28;19999;-39
2021/07/11 13:56:17;;;;;;;;;;;25.80;50.60;;;;;;5096000;28;19947;-37
2021/07/11 13:58:43;;;;;;;;;;;25.40;51.20;;;;;;5096368;28;19904;-48
2021/07/11 14:01:09;;;;;;;;;;;25.20;51.10;;;;;;5096159;28;19907;-39
2021/07/11 14:03:34;;;;;;;;;;;24.80;53.40;;;;;;5095603;28;19904;-37
2021/07/11 14:06:00;;;;;;;;;;;25.30;52.60;;;;;;5077763;28;20278;-37
2021/07/11 14:08:26;;;;;;;;;;;25.30;52.80;;;;;;5095616;28;19908;-38
2021/07/11 14:10:52;;;;;;;;;;;25.80;50.80;;;;;;5095709;28;19954;-38
2021/07/11 14:13:17;;;;;;;;;;;27.10;47.20;;;;;;5077077;28;20286;-38